Time;durP1;ratioP1;P1;durP2;ratioP2;P2;SDS_P1;SDS_P2;PMS_P1;PMS_P2;Temp;Humidity;BMP_temperature;BMP_pressure;BME280_temperature;BME280_humidity;BME280_pressure;Samples;Min_cycle;Max_cycle;Signal;HPM_P1;HPM_P2
2022/09/30 00:01:28;;;;;;;9.83;7.40;;;10.60;96.10;;;;;;5138749;28;20176;-45
2022/09/30 00:03:55;;;;;;;7.50;6.73;;;10.60;96.50;;;;;;5138190;28;20437;-45
2022/09/30 00:06:20;;;;;;;7.97;7.17;;;10.60;96.20;;;;;;5138812;28;20779;-45
2022/09/30 00:08:46;;;;;;;7.97;7.17;;;10.60;96.30;;;;;;5138305;28;20421;-45
2022/09/30 00:11:21;;;;;;;6.67;6.07;;;10.60;96.30;;;;;;5139021;28;20224;-46
2022/09/30 00:13:49;;;;;;;8.37;7.57;;;10.60;96.40;;;;;;5139066;28;20536;-45
2022/09/30 00:16:15;;;;;;;8.97;7.20;;;10.60;96.70;;;;;;5137676;28;20416;-44
2022/09/30 00:18:42;;;;;;;7.60;6.67;;;10.60;96.40;;;;;;5137262;28;20429;-47
2022/09/30 00:21:09;;;;;;;8.77;7.33;;;10.60;96.40;;;;;;5136400;28;20481;-45
2022/09/30 00:23:36;;;;;;;8.60;7.03;;;10.60;96.40;;;;;;5137421;28;20429;-46
2022/09/30 00:26:05;;;;;;;8.07;7.27;;;10.60;96.40;;;;;;5136824;28;20485;-46
2022/09/30 00:28:30;;;;;;;8.10;7.03;;;10.60;96.50;;;;;;5137004;28;20425;-47
2022/09/30 00:31:01;;;;;;;8.00;7.20;;;10.60;96.50;;;;;;5118548;28;20418;-46
2022/09/30 00:33:27;;;;;;;7.43;6.73;;;10.60;96.60;;;;;;5119930;28;20209;-47
2022/09/30 00:35:52;;;;;;;7.80;7.10;;;10.60;96.60;;;;;;5139060;28;20432;-45
2022/09/30 00:38:18;;;;;;;8.67;7.17;;;10.60;96.70;;;;;;5138261;28;20240;-45
2022/09/30 00:40:44;;;;;;;8.00;7.20;;;10.60;96.70;;;;;;5138298;28;20240;-45
2022/09/30 00:43:14;;;;;;;7.67;6.80;;;10.60;96.70;;;;;;5138663;28;20175;-45
2022/09/30 00:45:44;;;;;;;8.83;6.90;;;10.60;96.70;;;;;;5137620;28;20824;-45
2022/09/30 00:48:14;;;;;;;8.17;7.37;;;10.60;96.80;;;;;;5137890;28;20413;-46
2022/09/30 00:50:45;;;;;;;7.63;6.70;;;10.70;96.90;;;;;;5119589;28;21004;-47
2022/09/30 00:56:25;;;;;;;8.40;7.60;;;10.70;96.90;;;;;;5111657;27;20617;-46
2022/09/30 00:58:59;;;;;;;8.60;6.47;;;10.70;96.90;;;;;;5110349;28;20746;-46
2022/09/30 01:01:24;;;;;;;7.80;7.10;;;10.70;97.00;;;;;;5111416;28;20422;-46
2022/09/30 01:03:59;;;;;;;7.87;7.17;;;10.70;97.00;;;;;;5110728;28;20633;-49
2022/09/30 01:06:25;;;;;;;8.70;7.27;;;10.70;97.00;;;;;;5110271;28;20172;-46
2022/09/30 01:08:51;;;;;;;7.63;6.83;;;10.70;96.90;;;;;;5113590;28;20448;-44
2022/09/30 01:11:18;;;;;;;7.30;6.60;;;10.70;96.90;;;;;;5111723;28;20408;-44
2022/09/30 01:13:46;;;;;;;9.93;7.17;;;10.70;96.90;;;;;;5113777;28;20475;-45
2022/09/30 01:16:38;;;;;;;7.67;6.97;;;10.70;96.90;;;;;;5113591;28;20482;-45
2022/09/30 01:19:32;;;;;;;7.73;7.03;;;10.70;96.90;;;;;;5111944;28;20817;-45
2022/09/30 01:22:18;;;;;;;8.93;7.10;;;10.70;97.00;;;;;;5113773;28;20533;-46
2022/09/30 01:25:05;;;;;;;7.97;6.93;;;10.70;97.00;;;;;;5114405;28;20437;-45
2022/09/30 01:28:10;;;;;;;7.93;6.50;;;10.70;97.10;;;;;;5115036;28;20517;-45
2022/09/30 01:30:54;;;;;;;6.80;6.10;;;10.70;97.20;;;;;;5115221;28;20863;-47
2022/09/30 01:33:25;;;;;;;9.80;6.80;;;10.70;97.20;;;;;;5113238;28;20418;-45
2022/09/30 01:36:05;;;;;;;6.80;6.10;;;10.60;97.20;;;;;;5113296;28;20465;-45
2022/09/30 01:38:31;;;;;;;6.50;5.90;;;10.70;97.30;;;;;;5113600;28;20421;-46
2022/09/30 01:41:19;;;;;;;8.40;6.83;;;10.70;97.30;;;;;;5113739;28;20418;-46
2022/09/30 01:44:19;;;;;;;7.80;7.10;;;10.70;97.30;;;;;;5110749;28;20192;-45
2022/09/30 01:46:58;;;;;;;7.70;6.87;;;10.60;97.50;;;;;;5113569;28;20425;-49
2022/09/30 01:49:37;;;;;;;7.47;6.77;;;10.60;97.20;;;;;;5113176;28;20746;-45
2022/09/30 01:52:16;;;;;;;9.53;7.20;;;10.70;97.30;;;;;;5111993;28;20429;-46
2022/09/30 01:54:59;;;;;;;6.87;6.23;;;10.60;97.20;;;;;;5111394;28;20481;-43
2022/09/30 01:57:30;;;;;;;6.80;6.17;;;10.70;97.20;;;;;;5111025;28;20429;-46
2022/09/30 02:00:09;;;;;;;8.87;6.30;;;10.70;97.20;;;;;;5112260;28;20442;-45
2022/09/30 02:02:40;;;;;;;7.80;7.10;;;10.60;97.20;;;;;;5109885;28;20463;-45
2022/09/30 02:05:10;;;;;;;7.57;6.80;;;10.70;97.30;;;;;;5110890;28;20433;-47
2022/09/30 02:07:39;;;;;;;7.47;6.67;;;10.60;97.30;;;;;;5098280;28;20479;-49
2022/09/30 02:10:33;;;;;;;8.27;7.47;;;10.60;97.30;;;;;;5097441;28;20711;-48
2022/09/30 02:13:21;;;;;;;7.17;6.47;;;10.60;97.30;;;;;;5098405;28;20469;-45
2022/09/30 02:15:52;;;;;;;7.73;7.00;;;10.60;97.40;;;;;;5096575;28;20991;-45
2022/09/30 02:18:36;;;;;;;6.50;5.90;;;10.60;97.40;;;;;;5096179;28;20435;-46
2022/09/30 02:21:04;;;;;;;8.80;6.40;;;10.60;97.50;;;;;;5098737;28;20844;-44
2022/09/30 02:23:33;;;;;;;8.83;7.93;;;10.60;97.50;;;;;;5099052;28;20434;-45
2022/09/30 02:26:05;;;;;;;6.93;6.20;;;10.60;97.50;;;;;;5097143;28;20821;-48
2022/09/30 02:28:32;;;;;;;9.60;7.30;;;10.60;97.50;;;;;;5098906;28;20407;-47
2022/09/30 02:30:59;;;;;;;7.30;6.60;;;10.60;97.50;;;;;;5098509;28;20426;-44
2022/09/30 02:33:33;;;;;;;8.20;7.40;;;10.60;97.60;;;;;;5097766;28;20411;-48
2022/09/30 02:36:05;;;;;;;8.70;7.13;;;10.60;97.60;;;;;;5096786;28;20489;-47
2022/09/30 02:38:36;;;;;;;8.03;7.27;;;10.60;97.60;;;;;;5096602;28;20407;-44
2022/09/30 02:41:07;;;;;;;8.27;7.00;;;10.60;97.60;;;;;;5097035;28;20434;-47
2022/09/30 02:43:33;;;;;;;8.30;7.50;;;10.50;97.60;;;;;;5097212;28;20799;-45
2022/09/30 02:46:28;;;;;;;7.53;6.83;;;10.50;97.60;;;;;;5097005;28;20438;-44
2022/09/30 02:49:01;;;;;;;6.90;6.20;;;10.50;97.70;;;;;;5089699;28;20219;-45
2022/09/30 02:51:40;;;;;;;8.17;7.30;;;10.50;97.70;;;;;;5097710;28;20419;-46
2022/09/30 02:54:22;;;;;;;7.80;7.00;;;10.50;97.70;;;;;;5078361;28;20446;-46
2022/09/30 02:56:56;;;;;;;7.70;6.90;;;10.50;97.70;;;;;;5096172;28;20558;-45
2022/09/30 02:59:22;;;;;;;7.20;6.50;;;10.50;97.70;;;;;;5096817;28;20414;-47
2022/09/30 03:01:48;;;;;;;7.17;6.47;;;10.50;97.70;;;;;;5096643;28;20437;-45
2022/09/30 03:04:17;;;;;;;8.23;6.70;;;10.50;97.70;;;;;;5097336;28;20493;-45
2022/09/30 03:06:43;;;;;;;8.40;7.17;;;10.50;97.70;;;;;;5096022;28;20172;-46
2022/09/30 03:09:09;;;;;;;7.70;6.53;;;10.50;97.70;;;;;;5097506;28;20476;-45
2022/09/30 03:11:36;;;;;;;6.77;6.17;;;10.50;97.80;;;;;;5098056;28;20672;-47
2022/09/30 03:14:13;;;;;;;7.87;7.17;;;10.40;97.70;;;;;;5096457;28;20567;-45
2022/09/30 03:16:52;;;;;;;8.20;7.40;;;10.50;97.80;;;;;;5097607;28;20426;-48
2022/09/30 03:19:48;;;;;;;8.10;7.40;;;10.50;97.80;;;;;;5096822;28;20545;-44
2022/09/30 03:22:23;;;;;;;7.57;6.77;;;10.40;97.80;;;;;;5098230;28;20430;-49
2022/09/30 03:24:52;;;;;;;9.13;6.90;;;10.40;97.80;;;;;;5098073;28;20759;-46
2022/09/30 03:27:27;;;;;;;8.27;7.47;;;10.40;97.80;;;;;;5098483;28;20669;-45
2022/09/30 03:29:55;;;;;;;7.97;7.27;;;10.40;97.90;;;;;;5098135;28;20513;-48
2022/09/30 03:32:36;;;;;;;8.93;7.87;;;10.40;97.90;;;;;;5097550;28;20433;-47
2022/09/30 03:35:07;;;;;;;10.10;7.33;;;10.30;97.90;;;;;;5096711;28;20450;-48
2022/09/30 03:38:02;;;;;;;7.90;7.10;;;10.30;97.80;;;;;;5097023;28;20438;-47
2022/09/30 03:41:08;;;;;;;8.37;7.50;;;10.30;97.80;;;;;;5095949;28;20438;-45
2022/09/30 03:43:34;;;;;;;7.63;6.60;;;10.30;97.90;;;;;;5095968;28;20415;-44
2022/09/30 03:46:09;;;;;;;9.47;7.90;;;10.20;97.80;;;;;;5094489;28;20550;-45
2022/09/30 03:48:36;;;;;;;9.80;7.50;;;10.20;97.80;;;;;;5095687;28;20411;-45
2022/09/30 03:51:03;;;;;;;7.40;6.73;;;10.20;97.80;;;;;;5095635;28;20745;-45
2022/09/30 03:53:29;;;;;;;8.03;7.00;;;10.20;97.90;;;;;;5094937;28;20453;-45
2022/09/30 03:55:54;;;;;;;8.33;7.07;;;10.10;97.80;;;;;;5094973;28;20553;-46
2022/09/30 03:58:22;;;;;;;7.67;6.97;;;10.10;97.80;;;;;;5096043;28;20427;-46
2022/09/30 04:00:52;;;;;;;7.43;6.73;;;10.10;97.90;;;;;;5095555;28;20173;-45
2022/09/30 04:03:20;;;;;;;7.00;6.40;;;10.10;97.90;;;;;;5093850;28;20415;-48
2022/09/30 04:05:46;;;;;;;10.23;7.33;;;10.00;97.80;;;;;;5094041;28;20820;-45
2022/09/30 04:08:12;;;;;;;7.77;6.20;;;10.00;97.80;;;;;;5093944;28;20479;-46
2022/09/30 04:10:42;;;;;;;6.97;6.27;;;10.00;97.80;;;;;;5094796;28;20419;-47
2022/09/30 04:13:08;;;;;;;7.27;6.57;;;9.90;98.30;;;;;;5094309;28;20433;-44
2022/09/30 04:15:35;;;;;;;7.97;7.17;;;10.00;97.70;;;;;;5092955;28;20474;-46
2022/09/30 04:18:01;;;;;;;7.47;6.77;;;9.90;98.30;;;;;;5093494;28;20403;-46
2022/09/30 04:20:26;;;;;;;8.30;7.03;;;9.90;98.30;;;;;;5093431;28;20511;-46
2022/09/30 04:22:52;;;;;;;7.43;6.73;;;9.90;98.30;;;;;;5093670;28;20423;-46
2022/09/30 04:25:17;;;;;;;8.43;6.93;;;9.90;98.30;;;;;;5094155;28;20181;-44
2022/09/30 04:27:43;;;;;;;7.53;6.63;;;9.90;98.30;;;;;;5094028;28;20613;-45
2022/09/30 04:30:09;;;;;;;8.27;7.47;;;9.90;98.40;;;;;;5093996;28;20177;-45
2022/09/30 04:32:35;;;;;;;9.33;7.13;;;9.90;98.40;;;;;;5095672;28;20786;-46
2022/09/30 04:35:00;;;;;;;8.47;7.03;;;9.90;98.40;;;;;;5095055;28;20488;-45
2022/09/30 04:37:26;;;;;;;12.23;8.07;;;9.80;98.40;;;;;;5094123;28;20570;-46
2022/09/30 04:39:51;;;;;;;10.00;8.33;;;9.90;98.50;;;;;;5094517;28;20470;-46
2022/09/30 04:42:17;;;;;;;9.80;8.37;;;9.80;98.40;;;;;;5093170;28;20169;-45
2022/09/30 04:44:43;;;;;;;9.20;8.30;;;9.80;98.40;;;;;;5093398;28;20231;-48
2022/09/30 04:47:09;;;;;;;9.27;8.37;;;9.80;98.40;;;;;;5092092;28;20582;-47
2022/09/30 04:49:34;;;;;;;8.57;7.67;;;9.80;98.50;;;;;;5092103;28;20293;-47
2022/09/30 04:52:00;;;;;;;8.27;7.43;;;9.80;98.50;;;;;;5092244;28;20407;-46
2022/09/30 04:54:26;;;;;;;9.80;8.20;;;9.70;98.50;;;;;;5093995;28;20228;-48
2022/09/30 04:56:51;;;;;;;9.40;8.40;;;9.70;98.40;;;;;;5093859;28;20180;-45
2022/09/30 04:59:17;;;;;;;8.37;7.47;;;9.70;98.50;;;;;;5094486;28;20239;-49
2022/09/30 05:01:43;;;;;;;9.40;8.20;;;9.70;98.50;;;;;;5092625;28;20234;-46
2022/09/30 05:04:11;;;;;;;9.20;7.80;;;9.70;98.50;;;;;;5092149;28;20474;-46
2022/09/30 05:06:38;;;;;;;8.27;7.33;;;9.70;98.50;;;;;;5092925;28;20422;-45
2022/09/30 05:09:04;;;;;;;8.83;8.03;;;9.70;98.50;;;;;;5090892;28;20450;-46
2022/09/30 05:11:29;;;;;;;9.20;8.23;;;9.70;98.50;;;;;;5091637;28;20521;-46
2022/09/30 05:13:55;;;;;;;9.57;8.60;;;9.60;98.50;;;;;;5091721;28;20442;-46
2022/09/30 05:16:21;;;;;;;10.20;8.60;;;9.60;98.70;;;;;;5092076;28;20208;-44
2022/09/30 05:18:48;;;;;;;9.40;8.20;;;9.60;98.80;;;;;;5090946;28;20649;-46
2022/09/30 05:21:15;;;;;;;12.97;10.00;;;9.50;98.90;;;;;;5089032;28;20173;-45
2022/09/30 05:23:41;;;;;;;13.97;10.80;;;9.50;99.10;;;;;;5090547;28;20407;-44
2022/09/30 05:26:07;;;;;;;12.87;11.57;;;9.50;99.20;;;;;;5086532;28;20621;-47
2022/09/30 05:28:32;;;;;;;10.80;9.70;;;9.50;99.40;;;;;;5087439;28;20494;-44
2022/09/30 05:31:01;;;;;;;11.67;10.43;;;9.50;99.50;;;;;;5087026;28;20188;-46
2022/09/30 05:33:30;;;;;;;11.27;10.10;;;9.50;99.60;;;;;;5089221;28;20167;-44
2022/09/30 05:35:59;;;;;;;11.27;10.07;;;9.50;99.70;;;;;;5090477;28;20562;-47
2022/09/30 05:38:25;;;;;;;12.03;10.57;;;9.60;99.80;;;;;;5089209;28;20692;-46
2022/09/30 05:40:51;;;;;;;15.77;10.43;;;9.60;99.80;;;;;;5089514;28;20431;-44
2022/09/30 05:43:17;;;;;;;11.57;10.00;;;9.60;99.80;;;;;;5094801;28;20176;-45
2022/09/30 05:45:51;;;;;;;11.67;10.47;;;9.60;99.80;;;;;;5093569;28;20506;-44
2022/09/30 05:48:17;;;;;;;11.60;9.50;;;9.80;99.90;;;;;;5091700;28;20666;-44
2022/09/30 05:50:42;;;;;;;10.97;9.90;;;9.80;99.90;;;;;;5088214;28;20441;-46
2022/09/30 05:53:08;;;;;;;11.57;9.87;;;9.90;99.90;;;;;;5091135;28;20388;-44
2022/09/30 05:55:33;;;;;;;11.80;10.70;;;10.00;99.20;;;;;;5090678;28;20224;-43
2022/09/30 05:57:59;;;;;;;13.13;10.23;;;10.10;99.20;;;;;;5089804;28;20467;-48
2022/09/30 06:00:25;;;;;;;11.50;9.87;;;10.20;99.10;;;;;;5090594;28;20165;-43
2022/09/30 06:02:51;;;;;;;13.93;10.93;;;10.30;99.10;;;;;;5092109;28;20273;-45
2022/09/30 06:05:18;;;;;;;11.90;10.70;;;10.40;99.00;;;;;;5093351;28;20269;-45
2022/09/30 06:07:43;;;;;;;11.07;9.97;;;10.60;99.00;;;;;;5094514;28;20438;-45
2022/09/30 06:10:11;;;;;;;12.43;9.13;;;10.70;98.80;;;;;;5095061;28;20827;-44
2022/09/30 06:12:37;;;;;;;9.70;8.80;;;10.80;98.70;;;;;;5096507;28;20627;-44
2022/09/30 06:15:04;;;;;;;10.77;9.77;;;10.90;98.50;;;;;;5094938;28;20898;-47
2022/09/30 06:17:29;;;;;;;10.73;9.53;;;11.10;98.50;;;;;;5095431;28;20520;-45
2022/09/30 06:19:55;;;;;;;13.03;8.97;;;11.30;98.40;;;;;;5096822;28;20916;-45
2022/09/30 06:22:21;;;;;;;9.00;8.10;;;11.60;98.20;;;;;;5096993;28;20181;-45
2022/09/30 06:24:47;;;;;;;10.40;9.30;;;11.80;97.90;;;;;;5095951;28;20457;-46
2022/09/30 06:27:12;;;;;;;10.20;9.20;;;12.10;97.40;;;;;;5094011;28;20423;-46
2022/09/30 06:29:38;;;;;;;9.80;8.87;;;12.50;97.10;;;;;;5094002;28;20567;-47
2022/09/30 06:32:05;;;;;;;9.37;8.50;;;12.80;96.70;;;;;;5096624;28;20181;-44
2022/09/30 06:34:31;;;;;;;9.10;8.20;;;12.90;96.20;;;;;;5094848;28;20467;-44
2022/09/30 06:36:56;;;;;;;10.00;9.10;;;13.00;95.80;;;;;;5093280;28;20455;-43
2022/09/30 06:39:22;;;;;;;9.17;8.27;;;13.10;95.70;;;;;;5096202;28;20183;-44
2022/09/30 06:41:48;;;;;;;9.10;8.13;;;13.20;95.50;;;;;;5096113;28;20512;-43
2022/09/30 06:44:13;;;;;;;11.20;10.07;;;13.20;95.30;;;;;;5093485;28;20242;-43
2022/09/30 06:46:39;;;;;;;9.00;7.57;;;13.20;95.20;;;;;;5092163;28;20177;-45
2022/09/30 06:49:06;;;;;;;9.60;8.10;;;13.30;95.00;;;;;;5093199;28;20192;-44
2022/09/30 06:51:32;;;;;;;8.50;7.70;;;13.40;94.90;;;;;;5092949;28;20170;-45
2022/09/30 06:53:58;;;;;;;10.37;9.37;;;13.40;94.70;;;;;;5092794;28;20426;-43
2022/09/30 06:56:24;;;;;;;13.10;9.87;;;13.50;94.60;;;;;;5095251;28;20610;-45
2022/09/30 06:58:50;;;;;;;10.60;9.53;;;13.50;94.40;;;;;;5093975;28;20426;-44
2022/09/30 07:01:16;;;;;;;11.87;10.30;;;13.50;94.40;;;;;;5094816;28;20437;-43
2022/09/30 07:03:44;;;;;;;10.80;8.60;;;13.50;94.30;;;;;;5092303;28;20173;-46
2022/09/30 07:06:12;;;;;;;8.97;8.07;;;13.50;94.70;;;;;;5092958;28;20469;-46
2022/09/30 07:08:38;;;;;;;10.53;9.47;;;13.40;94.30;;;;;;5095999;28;20478;-47
2022/09/30 07:11:13;;;;;;;8.87;7.97;;;13.50;94.30;;;;;;5096872;28;20407;-46
2022/09/30 07:13:44;;;;;;;9.50;8.60;;;13.50;94.30;;;;;;5092361;28;20423;-46
2022/09/30 07:16:10;;;;;;;10.60;8.93;;;13.70;94.30;;;;;;5091199;28;20471;-45
2022/09/30 07:18:36;;;;;;;9.70;8.80;;;13.90;94.10;;;;;;5089949;28;20421;-44
2022/09/30 07:21:02;;;;;;;8.60;7.37;;;14.10;93.80;;;;;;5093299;28;20442;-43
2022/09/30 07:23:28;;;;;;;8.60;7.80;;;14.20;93.60;;;;;;5091540;28;20468;-46
2022/09/30 07:25:55;;;;;;;9.27;7.57;;;14.40;93.40;;;;;;5093467;28;20424;-44
2022/09/30 07:28:26;;;;;;;8.73;7.93;;;14.50;93.00;;;;;;5094306;28;20185;-45
2022/09/30 07:30:54;;;;;;;8.83;8.03;;;14.60;92.90;;;;;;5090846;28;20407;-44
2022/09/30 07:33:20;;;;;;;9.20;8.30;;;14.70;92.60;;;;;;5093198;28;20428;-43
2022/09/30 07:35:53;;;;;;;8.57;7.77;;;14.70;92.40;;;;;;5092392;28;20455;-45
2022/09/30 07:38:20;;;;;;;8.70;7.83;;;14.70;92.30;;;;;;5093202;28;20556;-46
2022/09/30 07:40:57;;;;;;;10.17;7.43;;;14.70;92.40;;;;;;5094610;28;20422;-48
2022/09/30 07:43:23;;;;;;;11.03;8.27;;;14.70;92.40;;;;;;5094916;28;20852;-44
2022/09/30 07:45:49;;;;;;;8.83;8.03;;;14.70;92.40;;;;;;5094544;28;20480;-47
2022/09/30 07:50:59;;;;;;;8.63;7.80;;;14.80;92.50;;;;;;5093220;28;20247;-47
2022/09/30 07:53:25;;;;;;;9.47;8.47;;;15.00;92.40;;;;;;5094264;28;20489;-44
2022/09/30 07:55:50;;;;;;;14.07;9.80;;;15.20;92.20;;;;;;5092417;28;20327;-44
2022/09/30 07:58:16;;;;;;;13.47;9.60;;;15.40;91.80;;;;;;5093450;28;20429;-47
2022/09/30 08:00:42;;;;;;;10.77;9.30;;;15.60;91.70;;;;;;5094076;28;20185;-46
2022/09/30 08:03:08;;;;;;;10.30;8.03;;;15.80;91.30;;;;;;5094740;28;20436;-44
2022/09/30 08:05:47;;;;;;;9.50;8.13;;;15.90;91.00;;;;;;5093115;28;20174;-46
2022/09/30 08:08:13;;;;;;;14.10;8.27;;;15.90;90.70;;;;;;5091650;28;20466;-48
2022/09/30 08:10:39;;;;;;;8.83;7.93;;;16.00;90.70;;;;;;5091938;28;20517;-46
2022/09/30 08:13:05;;;;;;;8.00;7.30;;;16.10;90.60;;;;;;5091129;28;20828;-44
2022/09/30 08:15:31;;;;;;;8.33;7.43;;;16.20;90.40;;;;;;5091051;28;20301;-44
2022/09/30 08:17:56;;;;;;;8.40;7.60;;;16.30;90.40;;;;;;5092621;28;20519;-46
2022/09/30 08:20:22;;;;;;;9.40;8.50;;;16.30;90.20;;;;;;5092350;28;20454;-44
2022/09/30 08:22:51;;;;;;;10.93;8.17;;;16.40;90.00;;;;;;5092573;28;20189;-44
2022/09/30 08:25:17;;;;;;;9.07;8.17;;;16.40;89.80;;;;;;5091612;28;20178;-48
2022/09/30 08:27:42;;;;;;;7.83;7.13;;;16.50;89.60;;;;;;5093184;28;20436;-43
2022/09/30 08:30:09;;;;;;;9.90;6.80;;;16.60;89.40;;;;;;5093568;28;20262;-45
2022/09/30 08:32:34;;;;;;;10.30;9.37;;;16.80;88.80;;;;;;5092133;28;20200;-47
2022/09/30 08:35:00;;;;;;;7.50;6.73;;;16.90;88.10;;;;;;5093595;28;20585;-45
2022/09/30 08:37:25;;;;;;;8.67;7.87;;;17.00;87.30;;;;;;5094496;28;20193;-44
2022/09/30 08:39:51;;;;;;;10.10;7.13;;;17.20;86.70;;;;;;5095437;28;20174;-44
2022/09/30 08:42:34;;;;;;;8.20;7.40;;;17.40;86.10;;;;;;5094745;28;20512;-49
2022/09/30 08:45:16;;;;;;;9.37;7.20;;;17.70;84.70;;;;;;5095957;28;20176;-47
2022/09/30 08:47:51;;;;;;;9.00;6.33;;;18.10;83.30;;;;;;5094678;28;20583;-46
2022/09/30 08:50:34;;;;;;;6.77;5.17;;;18.90;82.20;;;;;;5095384;28;20419;-48
2022/09/30 08:53:09;;;;;;;7.53;4.17;;;19.60;81.00;;;;;;5095594;28;20416;-47
2022/09/30 08:55:43;;;;;;;5.37;3.77;;;20.40;79.90;;;;;;5094808;28;20474;-45
2022/09/30 08:58:26;;;;;;;5.10;4.60;;;21.30;78.00;;;;;;5093762;28;20438;-48
2022/09/30 09:00:54;;;;;;;4.60;4.20;;;22.10;74.40;;;;;;5093349;28;20653;-45
2022/09/30 09:03:22;;;;;;;5.43;4.33;;;22.70;72.00;;;;;;5094944;28;20464;-50
2022/09/30 09:05:50;;;;;;;7.93;4.00;;;23.40;68.30;;;;;;5093247;28;20452;-47
2022/09/30 09:08:20;;;;;;;6.87;5.00;;;24.30;65.50;;;;;;5093891;28;20434;-49
2022/09/30 09:10:50;;;;;;;6.00;5.33;;;25.40;63.50;;;;;;5093967;28;20830;-44
2022/09/30 09:13:49;;;;;;;6.40;5.30;;;26.40;59.20;;;;;;5091333;28;20414;-44
2022/09/30 09:16:28;;;;;;;6.30;4.93;;;26.90;56.80;;;;;;5091349;28;20750;-45
2022/09/30 09:18:58;;;;;;;4.70;4.30;;;27.00;54.80;;;;;;5096080;28;20820;-47
2022/09/30 09:21:30;;;;;;;6.40;4.37;;;27.20;53.30;;;;;;5096975;28;20570;-46
2022/09/30 09:23:59;;;;;;;3.90;3.60;;;27.60;51.80;;;;;;5096028;28;20431;-46
2022/09/30 09:26:26;;;;;;;6.40;3.80;;;28.20;50.50;;;;;;5092974;28;20457;-44
2022/09/30 09:29:00;;;;;;;5.50;3.60;;;28.60;48.80;;;;;;5093872;28;20463;-46
2022/09/30 09:31:26;;;;;;;3.93;3.10;;;29.20;47.90;;;;;;5098511;28;20410;-47
2022/09/30 09:33:55;;;;;;;3.73;3.37;;;29.90;46.70;;;;;;5098893;28;20861;-44
2022/09/30 09:36:53;;;;;;;3.40;2.97;;;30.20;45.50;;;;;;5093864;28;20251;-46
2022/09/30 09:39:50;;;;;;;3.50;3.10;;;30.40;44.90;;;;;;5085255;28;20835;-43
2022/09/30 09:42:38;;;;;;;3.63;2.40;;;29.60;45.20;;;;;;5096215;28;20484;-46
2022/09/30 09:45:12;;;;;;;15.83;2.77;;;29.10;45.60;;;;;;5094472;28;20440;-45
2022/09/30 09:47:38;;;;;;;4.80;2.33;;;28.80;45.70;;;;;;5097058;28;20414;-46
2022/09/30 09:50:10;;;;;;;4.10;2.70;;;28.60;46.00;;;;;;5097107;28;20416;-46
2022/09/30 09:53:09;;;;;;;3.43;2.60;;;28.10;45.40;;;;;;5094858;28;20720;-45
2022/09/30 09:55:36;;;;;;;3.43;2.80;;;27.60;45.30;;;;;;5094523;28;20493;-45
2022/09/30 09:58:04;;;;;;;3.03;2.40;;;27.30;45.40;;;;;;5094091;28;20417;-48
2022/09/30 10:03:15;;;;;;;4.70;3.33;;;26.80;46.60;;;;;;5096464;28;20449;-46
2022/09/30 10:05:41;;;;;;;2.83;2.47;;;26.80;46.80;;;;;;5097864;28;20888;-45
2022/09/30 10:08:20;;;;;;;4.37;2.80;;;27.00;46.70;;;;;;5098126;28;20381;-47
2022/09/30 10:10:50;;;;;;;3.03;2.33;;;27.40;46.40;;;;;;5098672;28;20408;-44
2022/09/30 10:13:28;;;;;;;3.40;2.77;;;28.10;45.20;;;;;;5097403;28;20828;-47
2022/09/30 10:15:58;;;;;;;3.97;2.73;;;28.40;44.90;;;;;;5097306;28;20493;-48
2022/09/30 10:18:35;;;;;;;2.47;2.27;;;28.20;44.20;;;;;;5098443;28;20417;-45
2022/09/30 10:21:22;;;;;;;2.90;2.43;;;28.10;43.80;;;;;;5097217;28;20412;-44
2022/09/30 10:23:48;;;;;;;2.67;2.47;;;28.10;44.00;;;;;;5088321;28;20905;-45
2022/09/30 10:26:13;;;;;;;2.53;2.27;;;28.20;43.90;;;;;;5088163;28;20437;-46
2022/09/30 10:28:45;;;;;;;3.20;2.20;;;28.30;44.50;;;;;;5097177;28;20250;-47
2022/09/30 10:31:22;;;;;;;2.67;2.20;;;28.30;44.00;;;;;;5095701;28;20171;-45
2022/09/30 10:33:52;;;;;;;2.80;2.37;;;29.10;43.80;;;;;;5094940;28;20418;-45
2022/09/30 10:36:20;;;;;;;2.07;1.60;;;29.60;41.90;;;;;;5094240;28;20475;-47
2022/09/30 10:38:59;;;;;;;2.30;2.10;;;29.70;41.10;;;;;;5094629;28;20526;-45
2022/09/30 10:41:27;;;;;;;3.20;1.90;;;29.80;41.60;;;;;;5092765;28;20407;-48
2022/09/30 10:43:56;;;;;;;3.33;2.40;;;29.60;42.10;;;;;;5090949;28;20432;-49
2022/09/30 10:46:43;;;;;;;3.50;2.00;;;29.30;41.90;;;;;;5092600;28;20860;-49
2022/09/30 10:49:17;;;;;;;4.27;2.33;;;28.90;42.90;;;;;;5094550;28;20829;-49
2022/09/30 10:51:44;;;;;;;4.70;2.30;;;28.40;43.40;;;;;;5092385;28;20920;-48
2022/09/30 10:54:39;;;;;;;2.30;2.00;;;27.90;43.90;;;;;;5091589;28;20702;-47
2022/09/30 10:57:19;;;;;;;2.63;2.20;;;27.60;45.60;;;;;;5090532;28;20400;-49
2022/09/30 10:59:46;;;;;;;3.27;2.47;;;27.80;45.10;;;;;;5089029;28;20380;-47
2022/09/30 11:02:17;;;;;;;2.53;2.00;;;29.70;44.00;;;;;;5091084;28;20473;-46
2022/09/30 11:04:49;;;;;;;7.30;2.93;;;31.60;42.20;;;;;;5077334;28;20458;-47
2022/09/30 11:07:24;;;;;;;2.27;2.00;;;31.80;40.80;;;;;;5069297;28;20705;-48
2022/09/30 11:09:59;;;;;;;3.00;1.87;;;31.80;40.20;;;;;;5072688;28;20409;-49
2022/09/30 11:12:42;;;;;;;3.40;1.93;;;31.50;40.20;;;;;;5072235;28;20796;-49
2022/09/30 11:15:20;;;;;;;2.27;2.03;;;32.50;39.80;;;;;;5070345;28;20445;-47
2022/09/30 11:17:57;;;;;;;2.73;1.97;;;34.90;38.50;;;;;;5071782;28;20427;-46
2022/09/30 11:20:37;;;;;;;3.80;2.57;;;37.20;36.40;;;;;;5072825;28;20420;-48
2022/09/30 11:23:15;;;;;;;3.40;2.20;;;39.30;33.80;;;;;;5072973;28;20413;-47
2022/09/30 11:25:56;;;;;;;17.00;6.20;;;40.90;31.80;;;;;;5073081;28;20535;-51
2022/09/30 11:28:24;;;;;;;17.47;4.70;;;42.00;30.10;;;;;;5070743;28;20408;-46
2022/09/30 11:31:26;;;;;;;7.53;3.87;;;42.80;29.40;;;;;;5070466;28;20511;-48
2022/09/30 11:34:09;;;;;;;8.50;3.60;;;43.40;28.00;;;;;;5071811;28;20511;-46
2022/09/30 11:36:41;;;;;;;5.90;3.20;;;44.00;27.50;;;;;;5070609;28;20700;-47
2022/09/30 11:39:26;;;;;;;6.03;3.30;;;44.10;27.10;;;;;;5072420;28;20413;-48
2022/09/30 11:42:00;;;;;;;11.33;3.40;;;43.20;27.70;;;;;;5073805;28;20422;-47
2022/09/30 11:44:40;;;;;;;5.23;3.03;;;43.30;27.80;;;;;;5077797;28;20493;-47
2022/09/30 11:47:26;;;;;;;7.70;3.40;;;43.70;27.10;;;;;;5094075;28;20420;-47
2022/09/30 11:49:55;;;;;;;4.60;2.90;;;44.60;27.00;;;;;;5093509;28;20408;-49
2022/09/30 11:52:52;;;;;;;3.53;2.83;;;45.30;26.70;;;;;;5090678;28;20759;-48
2022/09/30 11:55:36;;;;;;;4.60;2.27;;;45.00;26.60;;;;;;5089994;28;20465;-52
2022/09/30 11:58:06;;;;;;;3.30;2.80;;;45.20;25.80;;;;;;5092846;28;20427;-50
2022/09/30 12:00:35;;;;;;;5.63;2.47;;;45.10;25.60;;;;;;5089446;28;20475;-46
2022/09/30 12:03:13;;;;;;;3.43;2.47;;;45.20;25.90;;;;;;5092209;28;20427;-50
2022/09/30 12:05:53;;;;;;;3.23;2.63;;;45.50;25.70;;;;;;5095051;28;20529;-48
2022/09/30 12:08:35;;;;;;;2.47;2.23;;;46.10;24.90;;;;;;5096262;28;20416;-48
2022/09/30 12:11:13;;;;;;;2.97;2.03;;;46.50;25.30;;;;;;5094324;28;20433;-48
2022/09/30 12:13:55;;;;;;;5.27;2.70;;;46.80;25.30;;;;;;5096504;28;21062;-47
2022/09/30 12:16:24;;;;;;;3.00;2.50;;;46.40;25.20;;;;;;5095676;28;20423;-48
2022/09/30 12:18:56;;;;;;;6.10;3.10;;;44.60;25.30;;;;;;5092775;28;20489;-47
2022/09/30 12:21:39;;;;;;;2.57;2.37;;;42.30;25.80;;;;;;5093735;28;20435;-50
2022/09/30 12:24:50;;;;;;;2.90;2.60;;;39.80;27.20;;;;;;5092491;28;20415;-48
2022/09/30 12:27:32;;;;;;;2.67;2.47;;;37.50;28.10;;;;;;5091975;28;20463;-47
2022/09/30 12:30:17;;;;;;;3.20;2.60;;;35.20;29.00;;;;;;5093623;28;20971;-45
2022/09/30 12:33:04;;;;;;;5.00;2.20;;;33.50;30.10;;;;;;5078172;28;20528;-49
2022/09/30 12:35:52;;;;;;;5.20;2.20;;;31.90;31.50;;;;;;5095966;28;20413;-50
2022/09/30 12:38:36;;;;;;;3.20;2.80;;;30.70;32.90;;;;;;5094891;28;20405;-47
2022/09/30 12:41:16;;;;;;;3.13;2.67;;;29.90;33.40;;;;;;5093185;28;20513;-49
2022/09/30 12:43:53;;;;;;;4.50;2.80;;;29.00;34.40;;;;;;5087679;28;20390;-46
2022/09/30 12:46:23;;;;;;;4.43;2.73;;;28.30;35.10;;;;;;5090202;28;20513;-46
2022/09/30 12:49:13;;;;;;;4.00;3.20;;;27.80;35.50;;;;;;5094394;28;20439;-46
2022/09/30 12:51:42;;;;;;;2.93;2.27;;;27.30;35.80;;;;;;5091686;28;20441;-46
2022/09/30 12:54:15;;;;;;;3.63;2.60;;;26.90;35.70;;;;;;5092185;28;20383;-49
2022/09/30 12:56:45;;;;;;;2.93;2.30;;;26.50;36.30;;;;;;5071127;28;20440;-49
2022/09/30 12:59:12;;;;;;;4.17;2.40;;;26.40;36.80;;;;;;5079629;28;20471;-47
2022/09/30 13:01:40;;;;;;;3.87;2.10;;;26.20;37.30;;;;;;5092252;28;20510;-46
2022/09/30 13:04:07;;;;;;;3.63;2.70;;;26.10;37.90;;;;;;5092453;28;20524;-48
2022/09/30 13:06:47;;;;;;;3.83;2.17;;;25.90;37.30;;;;;;5094755;28;20525;-47
2022/09/30 13:09:18;;;;;;;2.60;2.37;;;25.70;37.50;;;;;;5080002;28;20412;-45
2022/09/30 13:11:58;;;;;;;2.50;1.97;;;25.40;37.80;;;;;;5073795;28;20435;-47
2022/09/30 13:14:34;;;;;;;3.63;2.57;;;25.10;38.20;;;;;;5073270;28;20410;-48
2022/09/30 13:17:06;;;;;;;3.40;2.43;;;24.80;38.40;;;;;;5072396;28;20434;-46
2022/09/30 13:19:39;;;;;;;3.10;2.80;;;24.50;38.60;;;;;;5074605;28;20426;-48